Аэропорт
Анапа (URKA)

 URKA / AAQ
ЗЦ Ростов-на-Дону
Ростов-на-Дону (URRV)
Ростов-на-Дону (URRV)
 45.00210, 37.34730  / 174 ft

 URKA 140152Z 1403/1503 22003G08MPS 9999 SCT020CB TEMPO 1403/1418 26003G08MPS 3100 -TSRASN BKN011 BKN020CB
показать схемы

 

 

Аэропорт Анапы — Витязево

Международный аэропорт федерального значения города-курорта Анапа в Краснодарском крае. Открыт в 1934 г. Расположен в 15 км от центра города. Крупнейший узел авиалиний на юге России. С 2009 по 2011 гг. находился на реконструкции.

 

ВПП 04/22, 2500х45м, цементобетон.

Категория посадки (метеоминимум) — 1 категория ICAO.

Аэродром Витязево 1-го класса. Способен принимать самолёты:

Ан-24, Ан-72, Ан-74, Ан-148, Ил-76, Ил-114, Ту-134, Ту-154, Ту-204, Ту-204С, Ту-214, Ту-144, Як-40, Як-42, СRJ-100, Fokker-70, ATR-42, ATR-72, Saab-2000, Saab-340B, A319, A320, Embraer-120, Boeing-737-500, Boeing-737-400, Boeing-737-300, а также вертолёты всех типов.

Максимальный взлетный вес воздушного судна 150 т.

 

По данным на 2015г. в аэропорт Витязево совершают регулярные и чартерные рейсы авиакомпании Nordstar Airlines, S7 Airlines, Алроса, Аэрофлот, Газпромавиа, Ижавиа, ИрАэро, Костромское  авиапредприятие, Нордавиа, Оренбургские авиалинии, Победа, Полёт, Россия, РусЛайн, Северсталь, Трансаэро, Уральские авиалинии, ЮТэйр, Якутия, Ямал.



2018 © VATRUS division